sensor_id;sensor_type;location;lat;lon;timestamp;P1;durP1;ratioP1;P2;durP2;ratioP2
13425;SDS011;6785;57.918;12.530;2024-01-27T02:31:41;11.17;;;2.40;;
13425;SDS011;6785;57.918;12.530;2024-01-27T02:34:07;7.57;;;1.97;;
13425;SDS011;6785;57.918;12.530;2024-01-27T02:36:50;11.40;;;2.17;;
13425;SDS011;6785;57.918;12.530;2024-01-27T02:39:17;8.07;;;2.87;;
13425;SDS011;6785;57.918;12.530;2024-01-27T02:41:43;10.07;;;2.43;;
13425;SDS011;6785;57.918;12.530;2024-01-27T02:44:10;9.83;;;2.03;;
13425;SDS011;6785;57.918;12.530;2024-01-27T02:46:37;12.53;;;2.43;;
13425;SDS011;6785;57.918;12.530;2024-01-27T02:49:05;12.53;;;2.40;;
13425;SDS011;6785;57.918;12.530;2024-01-27T02:51:31;15.30;;;2.67;;
13425;SDS011;6785;57.918;12.530;2024-01-27T02:53:58;9.87;;;2.50;;
13425;SDS011;6785;57.918;12.530;2024-01-27T02:56:31;9.07;;;2.03;;
13425;SDS011;6785;57.918;12.530;2024-01-27T02:58:58;11.37;;;2.50;;
13425;SDS011;6785;57.918;12.530;2024-01-27T03:01:25;10.03;;;1.97;;
13425;SDS011;6785;57.918;12.530;2024-01-27T03:03:51;8.90;;;2.07;;
13425;SDS011;6785;57.918;12.530;2024-01-27T03:06:19;9.37;;;2.20;;
13425;SDS011;6785;57.918;12.530;2024-01-27T03:08:46;13.60;;;2.50;;
13425;SDS011;6785;57.918;12.530;2024-01-27T03:11:13;10.43;;;2.17;;
13425;SDS011;6785;57.918;12.530;2024-01-27T03:13:40;8.10;;;2.10;;
13425;SDS011;6785;57.918;12.530;2024-01-27T03:16:10;10.50;;;2.30;;
13425;SDS011;6785;57.918;12.530;2024-01-27T03:18:36;13.70;;;2.47;;
13425;SDS011;6785;57.918;12.530;2024-01-27T03:21:03;12.80;;;2.40;;
13425;SDS011;6785;57.918;12.530;2024-01-27T03:23:40;8.47;;;2.33;;
13425;SDS011;6785;57.918;12.530;2024-01-27T03:26:07;15.77;;;2.33;;
13425;SDS011;6785;57.918;12.530;2024-01-27T03:28:33;11.07;;;2.60;;
13425;SDS011;6785;57.918;12.530;2024-01-27T03:31:00;11.37;;;2.17;;
13425;SDS011;6785;57.918;12.530;2024-01-27T03:33:27;14.57;;;2.50;;
13425;SDS011;6785;57.918;12.530;2024-01-27T03:35:55;10.67;;;2.60;;
13425;SDS011;6785;57.918;12.530;2024-01-27T03:38:22;12.73;;;2.60;;
13425;SDS011;6785;57.918;12.530;2024-01-27T03:41:03;21.70;;;2.63;;
13425;SDS011;6785;57.918;12.530;2024-01-27T03:43:30;13.37;;;2.60;;
13425;SDS011;6785;57.918;12.530;2024-01-27T03:45:57;16.40;;;2.87;;
13425;SDS011;6785;57.918;12.530;2024-01-27T03:48:24;15.30;;;2.80;;
13425;SDS011;6785;57.918;12.530;2024-01-27T03:50:53;15.77;;;3.30;;
13425;SDS011;6785;57.918;12.530;2024-01-27T03:53:20;16.80;;;3.13;;
13425;SDS011;6785;57.918;12.530;2024-01-27T03:55:47;13.50;;;2.50;;
13425;SDS011;6785;57.918;12.530;2024-01-27T03:58:15;14.23;;;2.80;;
13425;SDS011;6785;57.918;12.530;2024-01-27T04:00:41;17.60;;;3.33;;
13425;SDS011;6785;57.918;12.530;2024-01-27T04:03:08;19.07;;;2.90;;
13425;SDS011;6785;57.918;12.530;2024-01-27T04:05:35;10.27;;;2.67;;
13425;SDS011;6785;57.918;12.530;2024-01-27T04:08:02;17.47;;;3.03;;
13425;SDS011;6785;57.918;12.530;2024-01-27T04:10:30;12.70;;;2.43;;
13425;SDS011;6785;57.918;12.530;2024-01-27T04:13:03;10.63;;;2.80;;
13425;SDS011;6785;57.918;12.530;2024-01-27T04:15:34;14.13;;;2.23;;
13425;SDS011;6785;57.918;12.530;2024-01-27T04:18:03;8.90;;;2.57;;
13425;SDS011;6785;57.918;12.530;2024-01-27T04:20:34;22.33;;;3.47;;
13425;SDS011;6785;57.918;12.530;2024-01-27T04:23:01;21.30;;;3.40;;
13425;SDS011;6785;57.918;12.530;2024-01-27T04:25:29;14.60;;;2.57;;
13425;SDS011;6785;57.918;12.530;2024-01-27T04:27:56;19.70;;;2.90;;
13425;SDS011;6785;57.918;12.530;2024-01-27T04:30:27;11.20;;;3.30;;
13425;SDS011;6785;57.918;12.530;2024-01-27T04:32:55;19.70;;;3.73;;
13425;SDS011;6785;57.918;12.530;2024-01-27T04:35:22;18.00;;;3.50;;
13425;SDS011;6785;57.918;12.530;2024-01-27T04:37:49;18.10;;;3.50;;
13425;SDS011;6785;57.918;12.530;2024-01-27T04:40:16;15.43;;;3.87;;
13425;SDS011;6785;57.918;12.530;2024-01-27T04:42:43;19.93;;;3.00;;
13425;SDS011;6785;57.918;12.530;2024-01-27T04:45:09;19.90;;;2.83;;
13425;SDS011;6785;57.918;12.530;2024-01-27T04:47:37;16.60;;;3.30;;
13425;SDS011;6785;57.918;12.530;2024-01-27T04:50:05;14.20;;;3.27;;
13425;SDS011;6785;57.918;12.530;2024-01-27T04:52:32;16.27;;;3.03;;
13425;SDS011;6785;57.918;12.530;2024-01-27T04:54:59;8.60;;;2.50;;
13425;SDS011;6785;57.918;12.530;2024-01-27T04:57:26;15.27;;;2.90;;
13425;SDS011;6785;57.918;12.530;2024-01-27T04:59:59;15.60;;;3.13;;
13425;SDS011;6785;57.918;12.530;2024-01-27T06:01:18;22.83;;;3.87;;
13425;SDS011;6785;57.918;12.530;2024-01-27T06:03:45;19.97;;;4.13;;
13425;SDS011;6785;57.918;12.530;2024-01-27T06:06:12;29.60;;;4.10;;
13425;SDS011;6785;57.918;12.530;2024-01-27T06:08:39;26.87;;;4.33;;
13425;SDS011;6785;57.918;12.530;2024-01-27T06:11:07;34.67;;;4.80;;
13425;SDS011;6785;57.918;12.530;2024-01-27T06:13:34;26.03;;;4.70;;
13425;SDS011;6785;57.918;12.530;2024-01-27T06:16:06;27.53;;;4.47;;
13425;SDS011;6785;57.918;12.530;2024-01-27T06:18:35;30.70;;;4.67;;
13425;SDS011;6785;57.918;12.530;2024-01-27T06:21:08;26.50;;;4.30;;
13425;SDS011;6785;57.918;12.530;2024-01-27T06:23:37;25.50;;;5.37;;
13425;SDS011;6785;57.918;12.530;2024-01-27T06:26:04;29.47;;;4.37;;
13425;SDS011;6785;57.918;12.530;2024-01-27T06:28:31;24.33;;;4.60;;
13425;SDS011;6785;57.918;12.530;2024-01-27T06:30:59;23.83;;;5.13;;
13425;SDS011;6785;57.918;12.530;2024-01-27T06:33:26;32.37;;;4.37;;
13425;SDS011;6785;57.918;12.530;2024-01-27T06:35:55;29.63;;;5.27;;
13425;SDS011;6785;57.918;12.530;2024-01-27T06:38:21;29.10;;;3.73;;
13425;SDS011;6785;57.918;12.530;2024-01-27T06:40:48;25.27;;;4.60;;
13425;SDS011;6785;57.918;12.530;2024-01-27T06:43:21;29.93;;;4.23;;
13425;SDS011;6785;57.918;12.530;2024-01-27T06:45:48;26.53;;;4.67;;
13425;SDS011;6785;57.918;12.530;2024-01-27T06:48:15;39.00;;;5.47;;
13425;SDS011;6785;57.918;12.530;2024-01-27T06:50:41;31.17;;;4.07;;
13425;SDS011;6785;57.918;12.530;2024-01-27T06:55:54;31.67;;;4.83;;
13425;SDS011;6785;57.918;12.530;2024-01-27T06:58:21;26.13;;;4.43;;
13425;SDS011;6785;57.918;12.530;2024-01-27T07:00:50;36.53;;;5.27;;
13425;SDS011;6785;57.918;12.530;2024-01-27T07:03:17;31.00;;;5.30;;
13425;SDS011;6785;57.918;12.530;2024-01-27T07:05:45;37.87;;;4.93;;
13425;SDS011;6785;57.918;12.530;2024-01-27T07:08:12;30.63;;;4.97;;
13425;SDS011;6785;57.918;12.530;2024-01-27T07:10:40;28.50;;;4.67;;
13425;SDS011;6785;57.918;12.530;2024-01-27T07:13:06;22.30;;;4.23;;
13425;SDS011;6785;57.918;12.530;2024-01-27T07:15:36;25.30;;;4.10;;
13425;SDS011;6785;57.918;12.530;2024-01-27T07:18:03;40.27;;;5.67;;
13425;SDS011;6785;57.918;12.530;2024-01-27T07:20:30;27.37;;;4.03;;
13425;SDS011;6785;57.918;12.530;2024-01-27T07:22:57;24.00;;;4.83;;
13425;SDS011;6785;57.918;12.530;2024-01-27T07:25:24;35.27;;;4.77;;
13425;SDS011;6785;57.918;12.530;2024-01-27T07:28:03;32.00;;;6.40;;
13425;SDS011;6785;57.918;12.530;2024-01-27T07:30:30;30.43;;;5.43;;
13425;SDS011;6785;57.918;12.530;2024-01-27T07:32:57;24.70;;;5.40;;
13425;SDS011;6785;57.918;12.530;2024-01-27T07:35:24;46.10;;;6.00;;
13425;SDS011;6785;57.918;12.530;2024-01-27T07:37:51;27.53;;;4.60;;
13425;SDS011;6785;57.918;12.530;2024-01-27T07:40:17;37.43;;;6.87;;
13425;SDS011;6785;57.918;12.530;2024-01-27T07:42:44;37.53;;;5.07;;
13425;SDS011;6785;57.918;12.530;2024-01-27T07:45:12;41.10;;;6.03;;
13425;SDS011;6785;57.918;12.530;2024-01-27T07:47:46;29.37;;;4.90;;
13425;SDS011;6785;57.918;12.530;2024-01-27T07:50:13;29.60;;;5.57;;
13425;SDS011;6785;57.918;12.530;2024-01-27T07:52:40;32.17;;;5.40;;
13425;SDS011;6785;57.918;12.530;2024-01-27T07:57:59;37.17;;;5.47;;
13425;SDS011;6785;57.918;12.530;2024-01-27T08:00:39;31.30;;;4.93;;
13425;SDS011;6785;57.918;12.530;2024-01-27T08:03:05;31.70;;;5.53;;
13425;SDS011;6785;57.918;12.530;2024-01-27T08:05:38;25.43;;;5.30;;
13425;SDS011;6785;57.918;12.530;2024-01-27T08:08:05;33.40;;;5.40;;
13425;SDS011;6785;57.918;12.530;2024-01-27T08:10:32;32.47;;;4.87;;
13425;SDS011;6785;57.918;12.530;2024-01-27T08:12:59;39.13;;;6.67;;
13425;SDS011;6785;57.918;12.530;2024-01-27T08:15:26;29.47;;;4.70;;
13425;SDS011;6785;57.918;12.530;2024-01-27T08:17:54;34.13;;;5.87;;
13425;SDS011;6785;57.918;12.530;2024-01-27T08:20:21;31.80;;;5.53;;
13425;SDS011;6785;57.918;12.530;2024-01-27T08:22:47;49.63;;;7.53;;
13425;SDS011;6785;57.918;12.530;2024-01-27T08:25:22;43.37;;;5.53;;
13425;SDS011;6785;57.918;12.530;2024-01-27T08:27:51;30.77;;;4.50;;
13425;SDS011;6785;57.918;12.530;2024-01-27T08:32:49;30.60;;;6.07;;
13425;SDS011;6785;57.918;12.530;2024-01-27T08:35:29;38.67;;;5.17;;
13425;SDS011;6785;57.918;12.530;2024-01-27T08:37:56;24.10;;;4.93;;
13425;SDS011;6785;57.918;12.530;2024-01-27T08:40:23;39.17;;;6.10;;
13425;SDS011;6785;57.918;12.530;2024-01-27T08:45:41;48.03;;;5.17;;
13425;SDS011;6785;57.918;12.530;2024-01-27T08:48:08;45.73;;;6.57;;
13425;SDS011;6785;57.918;12.530;2024-01-27T08:50:36;39.93;;;5.80;;
13425;SDS011;6785;57.918;12.530;2024-01-27T08:53:03;27.77;;;5.67;;
13425;SDS011;6785;57.918;12.530;2024-01-27T08:55:30;46.17;;;7.70;;
13425;SDS011;6785;57.918;12.530;2024-01-27T08:57:56;35.20;;;5.63;;
13425;SDS011;6785;57.918;12.530;2024-01-27T09:03:38;36.03;;;6.47;;
13425;SDS011;6785;57.918;12.530;2024-01-27T09:06:07;30.47;;;6.17;;
13425;SDS011;6785;57.918;12.530;2024-01-27T09:08:34;45.70;;;7.43;;
13425;SDS011;6785;57.918;12.530;2024-01-27T09:11:01;50.30;;;5.93;;
13425;SDS011;6785;57.918;12.530;2024-01-27T09:13:28;42.67;;;5.97;;
13425;SDS011;6785;57.918;12.530;2024-01-27T09:15:56;48.77;;;7.63;;
13425;SDS011;6785;57.918;12.530;2024-01-27T09:18:29;43.37;;;7.00;;
13425;SDS011;6785;57.918;12.530;2024-01-27T09:20:56;53.90;;;8.00;;
13425;SDS011;6785;57.918;12.530;2024-01-27T09:23:24;39.43;;;5.87;;
13425;SDS011;6785;57.918;12.530;2024-01-27T09:25:52;55.63;;;6.80;;
13425;SDS011;6785;57.918;12.530;2024-01-27T09:31:20;56.27;;;7.67;;
13425;SDS011;6785;57.918;12.530;2024-01-27T09:33:48;38.90;;;6.73;;
13425;SDS011;6785;57.918;12.530;2024-01-27T09:36:16;40.43;;;5.67;;
13425;SDS011;6785;57.918;12.530;2024-01-27T09:38:44;45.70;;;6.60;;
13425;SDS011;6785;57.918;12.530;2024-01-27T09:41:12;44.87;;;6.33;;
13425;SDS011;6785;57.918;12.530;2024-01-27T09:43:40;50.23;;;7.53;;
13425;SDS011;6785;57.918;12.530;2024-01-27T09:46:09;38.37;;;6.73;;
13425;SDS011;6785;57.918;12.530;2024-01-27T09:48:36;40.27;;;7.70;;
13425;SDS011;6785;57.918;12.530;2024-01-27T09:51:03;43.87;;;7.43;;
13425;SDS011;6785;57.918;12.530;2024-01-27T09:53:31;34.47;;;6.47;;
13425;SDS011;6785;57.918;12.530;2024-01-27T09:55:59;45.67;;;6.93;;
13425;SDS011;6785;57.918;12.530;2024-01-27T09:58:28;34.77;;;6.57;;
13425;SDS011;6785;57.918;12.530;2024-01-27T10:00:56;37.67;;;6.70;;
13425;SDS011;6785;57.918;12.530;2024-01-27T10:03:34;51.70;;;6.83;;
13425;SDS011;6785;57.918;12.530;2024-01-27T10:06:04;35.77;;;6.00;;
13425;SDS011;6785;57.918;12.530;2024-01-27T10:08:34;41.30;;;6.77;;
13425;SDS011;6785;57.918;12.530;2024-01-27T10:11:05;36.43;;;5.93;;
13425;SDS011;6785;57.918;12.530;2024-01-27T10:13:33;44.97;;;7.60;;
13425;SDS011;6785;57.918;12.530;2024-01-27T10:16:00;37.60;;;5.77;;
13425;SDS011;6785;57.918;12.530;2024-01-27T10:18:28;34.90;;;6.13;;
13425;SDS011;6785;57.918;12.530;2024-01-27T10:20:55;42.67;;;5.93;;
13425;SDS011;6785;57.918;12.530;2024-01-27T10:23:22;40.53;;;5.67;;
13425;SDS011;6785;57.918;12.530;2024-01-27T10:25:49;34.90;;;4.83;;
13425;SDS011;6785;57.918;12.530;2024-01-27T10:31:08;29.80;;;5.40;;
13425;SDS011;6785;57.918;12.530;2024-01-27T10:33:36;43.10;;;6.93;;
13425;SDS011;6785;57.918;12.530;2024-01-27T10:36:02;47.87;;;6.53;;
13425;SDS011;6785;57.918;12.530;2024-01-27T10:38:33;36.93;;;6.20;;
13425;SDS011;6785;57.918;12.530;2024-01-27T10:41:01;28.97;;;5.90;;
13425;SDS011;6785;57.918;12.530;2024-01-27T10:43:30;28.90;;;5.20;;
13425;SDS011;6785;57.918;12.530;2024-01-27T10:45:59;31.83;;;4.90;;
13425;SDS011;6785;57.918;12.530;2024-01-27T10:48:42;28.60;;;5.50;;
13425;SDS011;6785;57.918;12.530;2024-01-27T10:51:10;44.37;;;6.27;;
13425;SDS011;6785;57.918;12.530;2024-01-27T10:53:37;36.40;;;5.73;;
13425;SDS011;6785;57.918;12.530;2024-01-27T10:56:06;38.00;;;6.23;;
13425;SDS011;6785;57.918;12.530;2024-01-27T10:58:49;35.90;;;6.23;;
13425;SDS011;6785;57.918;12.530;2024-01-27T11:01:19;33.07;;;6.23;;
13425;SDS011;6785;57.918;12.530;2024-01-27T11:03:48;35.73;;;5.77;;
13425;SDS011;6785;57.918;12.530;2024-01-27T11:06:22;36.40;;;5.70;;
13425;SDS011;6785;57.918;12.530;2024-01-27T11:08:49;32.07;;;4.70;;
13425;SDS011;6785;57.918;12.530;2024-01-27T11:11:16;37.07;;;6.00;;
13425;SDS011;6785;57.918;12.530;2024-01-27T11:13:43;30.53;;;5.27;;
13425;SDS011;6785;57.918;12.530;2024-01-27T11:16:15;32.83;;;6.10;;
13425;SDS011;6785;57.918;12.530;2024-01-27T11:18:44;32.30;;;6.03;;
13425;SDS011;6785;57.918;12.530;2024-01-27T11:21:13;37.93;;;7.17;;
13425;SDS011;6785;57.918;12.530;2024-01-27T11:23:56;43.20;;;6.50;;
13425;SDS011;6785;57.918;12.530;2024-01-27T11:26:23;43.37;;;6.70;;
13425;SDS011;6785;57.918;12.530;2024-01-27T11:28:51;40.07;;;6.17;;
13425;SDS011;6785;57.918;12.530;2024-01-27T11:31:24;31.67;;;5.50;;
13425;SDS011;6785;57.918;12.530;2024-01-27T11:33:54;35.60;;;6.43;;
13425;SDS011;6785;57.918;12.530;2024-01-27T11:36:23;35.10;;;6.30;;
13425;SDS011;6785;57.918;12.530;2024-01-27T11:38:56;34.57;;;5.90;;
13425;SDS011;6785;57.918;12.530;2024-01-27T11:41:24;32.70;;;5.17;;
13425;SDS011;6785;57.918;12.530;2024-01-27T11:43:52;39.53;;;6.93;;
13425;SDS011;6785;57.918;12.530;2024-01-27T11:46:19;41.10;;;6.13;;
13425;SDS011;6785;57.918;12.530;2024-01-27T11:49:03;34.10;;;5.90;;
13425;SDS011;6785;57.918;12.530;2024-01-27T11:51:30;33.63;;;5.90;;
13425;SDS011;6785;57.918;12.530;2024-01-27T11:53:57;31.07;;;5.63;;
13425;SDS011;6785;57.918;12.530;2024-01-27T11:56:24;32.50;;;5.87;;
13425;SDS011;6785;57.918;12.530;2024-01-27T11:59:04;26.63;;;5.63;;
13425;SDS011;6785;57.918;12.530;2024-01-27T12:01:31;38.93;;;5.90;;
13425;SDS011;6785;57.918;12.530;2024-01-27T12:03:58;24.57;;;4.90;;
13425;SDS011;6785;57.918;12.530;2024-01-27T12:06:35;36.17;;;6.53;;
13425;SDS011;6785;57.918;12.530;2024-01-27T12:11:50;33.30;;;5.17;;
13425;SDS011;6785;57.918;12.530;2024-01-27T12:14:17;31.27;;;5.57;;
13425;SDS011;6785;57.918;12.530;2024-01-27T12:16:44;36.73;;;5.50;;
13425;SDS011;6785;57.918;12.530;2024-01-27T12:19:12;31.57;;;7.57;;
13425;SDS011;6785;57.918;12.530;2024-01-27T12:21:47;21.03;;;5.13;;
13425;SDS011;6785;57.918;12.530;2024-01-27T12:24:20;39.37;;;6.10;;
13425;SDS011;6785;57.918;12.530;2024-01-27T12:26:47;41.37;;;5.93;;
13425;SDS011;6785;57.918;12.530;2024-01-27T12:29:13;34.37;;;5.23;;
13425;SDS011;6785;57.918;12.530;2024-01-27T12:31:40;37.97;;;5.70;;
13425;SDS011;6785;57.918;12.530;2024-01-27T12:34:07;28.37;;;6.33;;
13425;SDS011;6785;57.918;12.530;2024-01-27T12:36:39;30.87;;;5.33;;
13425;SDS011;6785;57.918;12.530;2024-01-27T12:39:08;28.83;;;6.10;;
13425;SDS011;6785;57.918;12.530;2024-01-27T12:41:35;32.20;;;5.77;;
13425;SDS011;6785;57.918;12.530;2024-01-27T12:44:03;31.80;;;6.17;;
13425;SDS011;6785;57.918;12.530;2024-01-27T12:46:31;32.63;;;6.07;;
13425;SDS011;6785;57.918;12.530;2024-01-27T12:48:58;39.60;;;5.80;;
13425;SDS011;6785;57.918;12.530;2024-01-27T12:51:25;36.77;;;7.47;;
13425;SDS011;6785;57.918;12.530;2024-01-27T12:53:52;34.70;;;7.20;;
13425;SDS011;6785;57.918;12.530;2024-01-27T12:56:20;26.17;;;5.43;;
13425;SDS011;6785;57.918;12.530;2024-01-27T12:58:47;35.10;;;5.67;;
13425;SDS011;6785;57.918;12.530;2024-01-27T13:01:14;37.37;;;6.07;;
13425;SDS011;6785;57.918;12.530;2024-01-27T13:03:40;39.80;;;6.27;;
13425;SDS011;6785;57.918;12.530;2024-01-27T13:06:07;35.80;;;6.83;;
13425;SDS011;6785;57.918;12.530;2024-01-27T13:08:34;34.00;;;5.80;;
13425;SDS011;6785;57.918;12.530;2024-01-27T13:11:01;31.87;;;7.23;;
13425;SDS011;6785;57.918;12.530;2024-01-27T13:13:30;35.67;;;5.83;;
13425;SDS011;6785;57.918;12.530;2024-01-27T13:15:56;41.23;;;7.23;;
13425;SDS011;6785;57.918;12.530;2024-01-27T13:18:23;43.53;;;6.67;;
13425;SDS011;6785;57.918;12.530;2024-01-27T13:20:50;43.53;;;6.97;;
13425;SDS011;6785;57.918;12.530;2024-01-27T13:23:16;36.77;;;7.53;;
13425;SDS011;6785;57.918;12.530;2024-01-27T13:25:43;46.97;;;6.67;;
13425;SDS011;6785;57.918;12.530;2024-01-27T13:28:11;43.13;;;8.20;;
13425;SDS011;6785;57.918;12.530;2024-01-27T13:30:40;38.47;;;6.43;;
13425;SDS011;6785;57.918;12.530;2024-01-27T13:33:07;42.60;;;6.33;;
13425;SDS011;6785;57.918;12.530;2024-01-27T13:35:36;39.03;;;7.53;;
13425;SDS011;6785;57.918;12.530;2024-01-27T13:38:05;40.53;;;6.70;;
13425;SDS011;6785;57.918;12.530;2024-01-27T13:40:32;43.60;;;8.00;;
13425;SDS011;6785;57.918;12.530;2024-01-27T13:42:58;37.57;;;7.40;;
13425;SDS011;6785;57.918;12.530;2024-01-27T13:45:26;47.50;;;7.73;;
13425;SDS011;6785;57.918;12.530;2024-01-27T13:47:54;46.13;;;6.97;;
13425;SDS011;6785;57.918;12.530;2024-01-27T13:50:21;47.53;;;7.67;;
13425;SDS011;6785;57.918;12.530;2024-01-27T13:52:50;41.53;;;7.23;;
13425;SDS011;6785;57.918;12.530;2024-01-27T13:55:17;34.97;;;7.47;;
13425;SDS011;6785;57.918;12.530;2024-01-27T13:57:47;45.10;;;8.77;;
13425;SDS011;6785;57.918;12.530;2024-01-27T14:00:14;38.37;;;7.23;;
13425;SDS011;6785;57.918;12.530;2024-01-27T14:02:42;35.97;;;7.77;;
13425;SDS011;6785;57.918;12.530;2024-01-27T14:05:10;48.83;;;7.93;;
13425;SDS011;6785;57.918;12.530;2024-01-27T14:07:37;49.70;;;7.87;;
13425;SDS011;6785;57.918;12.530;2024-01-27T14:10:04;45.53;;;8.17;;
13425;SDS011;6785;57.918;12.530;2024-01-27T14:12:37;39.27;;;7.60;;
13425;SDS011;6785;57.918;12.530;2024-01-27T14:15:04;40.00;;;6.87;;
13425;SDS011;6785;57.918;12.530;2024-01-27T14:17:33;35.10;;;7.13;;
13425;SDS011;6785;57.918;12.530;2024-01-27T14:20:01;45.93;;;7.47;;
13425;SDS011;6785;57.918;12.530;2024-01-27T14:22:29;39.27;;;7.33;;
13425;SDS011;6785;57.918;12.530;2024-01-27T14:24:57;37.90;;;6.83;;
13425;SDS011;6785;57.918;12.530;2024-01-27T14:27:23;38.77;;;6.57;;
13425;SDS011;6785;57.918;12.530;2024-01-27T14:29:54;37.17;;;6.87;;
13425;SDS011;6785;57.918;12.530;2024-01-27T14:32:30;36.47;;;6.07;;
13425;SDS011;6785;57.918;12.530;2024-01-27T14:34:57;49.90;;;6.83;;
13425;SDS011;6785;57.918;12.530;2024-01-27T14:37:24;49.53;;;7.90;;
13425;SDS011;6785;57.918;12.530;2024-01-27T14:39:52;35.60;;;6.23;;
13425;SDS011;6785;57.918;12.530;2024-01-27T14:42:29;44.73;;;7.27;;
13425;SDS011;6785;57.918;12.530;2024-01-27T14:44:56;41.03;;;7.23;;
13425;SDS011;6785;57.918;12.530;2024-01-27T14:47:39;35.90;;;6.70;;
13425;SDS011;6785;57.918;12.530;2024-01-27T14:50:06;29.27;;;6.37;;
13425;SDS011;6785;57.918;12.530;2024-01-27T14:52:33;39.10;;;7.73;;
13425;SDS011;6785;57.918;12.530;2024-01-27T14:55:01;43.67;;;6.50;;
13425;SDS011;6785;57.918;12.530;2024-01-27T14:57:28;45.03;;;7.07;;
13425;SDS011;6785;57.918;12.530;2024-01-27T14:59:54;38.17;;;5.97;;
13425;SDS011;6785;57.918;12.530;2024-01-27T15:02:21;29.23;;;5.93;;
13425;SDS011;6785;57.918;12.530;2024-01-27T15:04:48;43.90;;;7.87;;
13425;SDS011;6785;57.918;12.530;2024-01-27T15:07:15;39.20;;;5.87;;
13425;SDS011;6785;57.918;12.530;2024-01-27T15:09:43;27.07;;;6.23;;
13425;SDS011;6785;57.918;12.530;2024-01-27T15:12:11;42.10;;;6.67;;
13425;SDS011;6785;57.918;12.530;2024-01-27T15:14:38;41.17;;;6.80;;
13425;SDS011;6785;57.918;12.530;2024-01-27T15:17:05;37.20;;;7.30;;
13425;SDS011;6785;57.918;12.530;2024-01-27T15:19:32;31.47;;;6.87;;
13425;SDS011;6785;57.918;12.530;2024-01-27T15:21:59;50.07;;;7.47;;
13425;SDS011;6785;57.918;12.530;2024-01-27T15:24:26;35.87;;;6.03;;
13425;SDS011;6785;57.918;12.530;2024-01-27T15:26:54;47.57;;;7.30;;
13425;SDS011;6785;57.918;12.530;2024-01-27T15:29:22;32.67;;;7.33;;
13425;SDS011;6785;57.918;12.530;2024-01-27T15:31:51;46.43;;;7.63;;
13425;SDS011;6785;57.918;12.530;2024-01-27T15:34:18;34.47;;;6.30;;
13425;SDS011;6785;57.918;12.530;2024-01-27T15:36:54;45.10;;;7.63;;
13425;SDS011;6785;57.918;12.530;2024-01-27T15:39:21;39.80;;;6.97;;
13425;SDS011;6785;57.918;12.530;2024-01-27T15:41:48;46.70;;;7.57;;
13425;SDS011;6785;57.918;12.530;2024-01-27T15:44:15;59.87;;;7.90;;
13425;SDS011;6785;57.918;12.530;2024-01-27T15:46:43;51.20;;;7.57;;
13425;SDS011;6785;57.918;12.530;2024-01-27T15:49:10;50.17;;;7.83;;
13425;SDS011;6785;57.918;12.530;2024-01-27T15:51:37;42.07;;;7.80;;
13425;SDS011;6785;57.918;12.530;2024-01-27T15:54:03;46.30;;;7.57;;
13425;SDS011;6785;57.918;12.530;2024-01-27T15:56:30;34.53;;;7.37;;
13425;SDS011;6785;57.918;12.530;2024-01-27T15:58:57;37.47;;;7.27;;
13425;SDS011;6785;57.918;12.530;2024-01-27T17:02:45;35.40;;;6.33;;
13425;SDS011;6785;57.918;12.530;2024-01-27T17:05:18;32.90;;;5.30;;
13425;SDS011;6785;57.918;12.530;2024-01-27T17:07:45;35.07;;;5.43;;
13425;SDS011;6785;57.918;12.530;2024-01-27T17:10:12;22.97;;;5.10;;
13425;SDS011;6785;57.918;12.530;2024-01-27T17:12:39;30.57;;;5.73;;
13425;SDS011;6785;57.918;12.530;2024-01-27T17:15:06;20.60;;;4.70;;
13425;SDS011;6785;57.918;12.530;2024-01-27T17:17:33;22.73;;;5.20;;
13425;SDS011;6785;57.918;12.530;2024-01-27T17:20:02;21.93;;;4.23;;
13425;SDS011;6785;57.918;12.530;2024-01-27T17:22:29;18.37;;;5.07;;
13425;SDS011;6785;57.918;12.530;2024-01-27T17:24:56;21.67;;;4.40;;
13425;SDS011;6785;57.918;12.530;2024-01-27T17:27:26;28.80;;;5.40;;
13425;SDS011;6785;57.918;12.530;2024-01-27T17:29:53;16.50;;;4.43;;
13425;SDS011;6785;57.918;12.530;2024-01-27T17:32:20;14.53;;;4.30;;
13425;SDS011;6785;57.918;12.530;2024-01-27T17:34:46;21.93;;;4.20;;
13425;SDS011;6785;57.918;12.530;2024-01-27T17:37:15;20.10;;;4.27;;
13425;SDS011;6785;57.918;12.530;2024-01-27T17:39:42;20.27;;;4.27;;
13425;SDS011;6785;57.918;12.530;2024-01-27T17:42:09;19.33;;;4.23;;
13425;SDS011;6785;57.918;12.530;2024-01-27T17:44:36;22.30;;;4.07;;
13425;SDS011;6785;57.918;12.530;2024-01-27T17:47:03;19.20;;;3.57;;
13425;SDS011;6785;57.918;12.530;2024-01-27T17:49:30;10.40;;;3.03;;
13425;SDS011;6785;57.918;12.530;2024-01-27T17:51:56;21.27;;;3.50;;
13425;SDS011;6785;57.918;12.530;2024-01-27T17:54:25;11.93;;;3.37;;
13425;SDS011;6785;57.918;12.530;2024-01-27T17:56:53;12.50;;;2.87;;
13425;SDS011;6785;57.918;12.530;2024-01-27T17:59:29;17.17;;;4.13;;
13425;SDS011;6785;57.918;12.530;2024-01-27T18:01:56;21.47;;;3.47;;
13425;SDS011;6785;57.918;12.530;2024-01-27T18:04:23;16.60;;;3.90;;
13425;SDS011;6785;57.918;12.530;2024-01-27T18:06:50;15.33;;;3.77;;
13425;SDS011;6785;57.918;12.530;2024-01-27T18:09:17;22.33;;;4.17;;
13425;SDS011;6785;57.918;12.530;2024-01-27T18:11:45;18.27;;;4.17;;
13425;SDS011;6785;57.918;12.530;2024-01-27T18:14:11;18.73;;;3.37;;
13425;SDS011;6785;57.918;12.530;2024-01-27T18:16:38;14.30;;;4.37;;
13425;SDS011;6785;57.918;12.530;2024-01-27T18:19:05;19.93;;;4.53;;
13425;SDS011;6785;57.918;12.530;2024-01-27T18:21:47;15.47;;;3.93;;
13425;SDS011;6785;57.918;12.530;2024-01-27T18:24:15;11.57;;;3.80;;
13425;SDS011;6785;57.918;12.530;2024-01-27T18:26:42;23.70;;;3.63;;
13425;SDS011;6785;57.918;12.530;2024-01-27T18:29:10;19.03;;;3.87;;
13425;SDS011;6785;57.918;12.530;2024-01-27T18:31:37;16.60;;;4.40;;
13425;SDS011;6785;57.918;12.530;2024-01-27T18:34:06;20.47;;;5.23;;
13425;SDS011;6785;57.918;12.530;2024-01-27T18:36:33;23.73;;;5.07;;
13425;SDS011;6785;57.918;12.530;2024-01-27T18:38:59;26.97;;;5.17;;
13425;SDS011;6785;57.918;12.530;2024-01-27T18:41:26;23.77;;;5.87;;
13425;SDS011;6785;57.918;12.530;2024-01-27T18:43:53;27.67;;;5.80;;
13425;SDS011;6785;57.918;12.530;2024-01-27T18:46:21;32.03;;;6.53;;
13425;SDS011;6785;57.918;12.530;2024-01-27T18:48:48;31.23;;;5.90;;
13425;SDS011;6785;57.918;12.530;2024-01-27T18:51:15;30.53;;;6.70;;
13425;SDS011;6785;57.918;12.530;2024-01-27T18:53:42;27.10;;;5.60;;
13425;SDS011;6785;57.918;12.530;2024-01-27T18:56:10;34.03;;;6.53;;
13425;SDS011;6785;57.918;12.530;2024-01-27T18:58:39;23.93;;;6.63;;
13425;SDS011;6785;57.918;12.530;2024-01-27T19:01:06;36.93;;;7.20;;
13425;SDS011;6785;57.918;12.530;2024-01-27T19:03:34;45.73;;;6.77;;
13425;SDS011;6785;57.918;12.530;2024-01-27T19:06:01;35.27;;;6.67;;
13425;SDS011;6785;57.918;12.530;2024-01-27T19:08:28;29.90;;;8.30;;
13425;SDS011;6785;57.918;12.530;2024-01-27T19:10:55;40.77;;;7.73;;
13425;SDS011;6785;57.918;12.530;2024-01-27T19:13:22;44.23;;;6.73;;
13425;SDS011;6785;57.918;12.530;2024-01-27T19:15:50;39.40;;;8.17;;
13425;SDS011;6785;57.918;12.530;2024-01-27T19:18:19;47.53;;;8.40;;
13425;SDS011;6785;57.918;12.530;2024-01-27T19:20:47;43.53;;;7.43;;
13425;SDS011;6785;57.918;12.530;2024-01-27T19:23:14;36.23;;;7.10;;
13425;SDS011;6785;57.918;12.530;2024-01-27T19:25:41;42.07;;;7.50;;
13425;SDS011;6785;57.918;12.530;2024-01-27T19:28:08;42.50;;;7.17;;
13425;SDS011;6785;57.918;12.530;2024-01-27T19:30:34;46.87;;;7.50;;
13425;SDS011;6785;57.918;12.530;2024-01-27T19:33:01;49.10;;;6.87;;
13425;SDS011;6785;57.918;12.530;2024-01-27T19:35:29;34.60;;;6.87;;